sensor_id;sensor_type;location;lat;lon;timestamp;temperature;humidity
10905;DHT22;5505;51.450;9.254;2023-05-09T00:01:43;11.10;99.90
10905;DHT22;5505;51.450;9.254;2023-05-09T00:04:29;11.10;99.90
10905;DHT22;5505;51.450;9.254;2023-05-09T00:07:18;12.20;99.90
10905;DHT22;5505;51.450;9.254;2023-05-09T00:10:06;11.00;99.90
10905;DHT22;5505;51.450;9.254;2023-05-09T00:12:52;10.90;99.90
10905;DHT22;5505;51.450;9.254;2023-05-09T00:15:40;10.80;99.90
10905;DHT22;5505;51.450;9.254;2023-05-09T00:18:27;10.80;99.90
10905;DHT22;5505;51.450;9.254;2023-05-09T00:21:14;11.50;99.90
10905;DHT22;5505;51.450;9.254;2023-05-09T00:24:03;10.80;99.90
10905;DHT22;5505;51.450;9.254;2023-05-09T00:26:49;10.70;99.90
10905;DHT22;5505;51.450;9.254;2023-05-09T00:29:36;10.70;99.90
10905;DHT22;5505;51.450;9.254;2023-05-09T00:32:23;10.70;99.90
10905;DHT22;5505;51.450;9.254;2023-05-09T00:35:10;10.60;99.90
10905;DHT22;5505;51.450;9.254;2023-05-09T00:37:57;10.50;99.90
10905;DHT22;5505;51.450;9.254;2023-05-09T00:40:45;11.50;99.90
10905;DHT22;5505;51.450;9.254;2023-05-09T00:43:32;10.50;99.90
10905;DHT22;5505;51.450;9.254;2023-05-09T00:46:18;10.40;99.90
10905;DHT22;5505;51.450;9.254;2023-05-09T00:49:06;10.40;99.90
10905;DHT22;5505;51.450;9.254;2023-05-09T00:51:53;10.40;99.90
10905;DHT22;5505;51.450;9.254;2023-05-09T00:54:41;10.30;99.90
10905;DHT22;5505;51.450;9.254;2023-05-09T00:57:29;10.20;99.90
10905;DHT22;5505;51.450;9.254;2023-05-09T01:00:16;10.10;99.90
10905;DHT22;5505;51.450;9.254;2023-05-09T01:03:03;10.00;99.90
10905;DHT22;5505;51.450;9.254;2023-05-09T01:05:56;9.90;99.90
10905;DHT22;5505;51.450;9.254;2023-05-09T01:08:52;9.70;99.90
10905;DHT22;5505;51.450;9.254;2023-05-09T01:11:47;9.50;99.90
10905;DHT22;5505;51.450;9.254;2023-05-09T01:14:53;9.50;99.90
10905;DHT22;5505;51.450;9.254;2023-05-09T01:17:48;9.50;99.90
10905;DHT22;5505;51.450;9.254;2023-05-09T01:20:38;9.50;99.90
10905;DHT22;5505;51.450;9.254;2023-05-09T01:23:58;9.70;99.90
10905;DHT22;5505;51.450;9.254;2023-05-09T01:27:01;9.60;99.90
10905;DHT22;5505;51.450;9.254;2023-05-09T01:29:56;9.70;99.90
10905;DHT22;5505;51.450;9.254;2023-05-09T01:32:45;9.70;99.90
10905;DHT22;5505;51.450;9.254;2023-05-09T01:35:36;9.70;99.90
10905;DHT22;5505;51.450;9.254;2023-05-09T01:38:24;9.80;99.90
10905;DHT22;5505;51.450;9.254;2023-05-09T01:41:14;9.80;99.90
10905;DHT22;5505;51.450;9.254;2023-05-09T01:44:04;9.80;99.90
10905;DHT22;5505;51.450;9.254;2023-05-09T01:46:55;10.50;99.90
10905;DHT22;5505;51.450;9.254;2023-05-09T01:49:43;9.70;99.90
10905;DHT22;5505;51.450;9.254;2023-05-09T01:52:31;9.80;99.90
10905;DHT22;5505;51.450;9.254;2023-05-09T01:55:20;10.20;99.90
10905;DHT22;5505;51.450;9.254;2023-05-09T01:58:10;9.80;99.90
10905;DHT22;5505;51.450;9.254;2023-05-09T02:00:57;9.70;99.90
10905;DHT22;5505;51.450;9.254;2023-05-09T02:03:49;9.70;99.90
10905;DHT22;5505;51.450;9.254;2023-05-09T02:06:37;9.50;99.90
10905;DHT22;5505;51.450;9.254;2023-05-09T02:09:24;9.40;99.90
10905;DHT22;5505;51.450;9.254;2023-05-09T02:12:11;10.00;99.90
10905;DHT22;5505;51.450;9.254;2023-05-09T02:14:58;9.30;99.90
10905;DHT22;5505;51.450;9.254;2023-05-09T02:17:45;9.30;99.90
10905;DHT22;5505;51.450;9.254;2023-05-09T02:20:33;9.30;99.90
10905;DHT22;5505;51.450;9.254;2023-05-09T02:23:21;10.50;99.90
10905;DHT22;5505;51.450;9.254;2023-05-09T02:26:08;9.20;99.90
10905;DHT22;5505;51.450;9.254;2023-05-09T02:28:55;9.10;99.90
10905;DHT22;5505;51.450;9.254;2023-05-09T02:31:43;9.00;99.90
10905;DHT22;5505;51.450;9.254;2023-05-09T02:34:32;8.90;99.90
10905;DHT22;5505;51.450;9.254;2023-05-09T02:37:20;8.80;99.90
10905;DHT22;5505;51.450;9.254;2023-05-09T02:40:08;8.90;99.90
10905;DHT22;5505;51.450;9.254;2023-05-09T02:42:56;8.80;99.90
10905;DHT22;5505;51.450;9.254;2023-05-09T02:45:42;9.10;99.90
10905;DHT22;5505;51.450;9.254;2023-05-09T02:48:29;8.80;99.90
10905;DHT22;5505;51.450;9.254;2023-05-09T02:51:16;8.70;99.90
10905;DHT22;5505;51.450;9.254;2023-05-09T02:54:04;8.70;99.90
10905;DHT22;5505;51.450;9.254;2023-05-09T02:56:51;8.70;99.90
10905;DHT22;5505;51.450;9.254;2023-05-09T02:59:38;8.60;99.90
10905;DHT22;5505;51.450;9.254;2023-05-09T03:02:25;8.60;99.90
10905;DHT22;5505;51.450;9.254;2023-05-09T03:05:11;8.50;99.90
10905;DHT22;5505;51.450;9.254;2023-05-09T03:07:58;8.50;99.90
10905;DHT22;5505;51.450;9.254;2023-05-09T03:10:46;8.60;99.90
10905;DHT22;5505;51.450;9.254;2023-05-09T03:13:33;8.50;99.90
10905;DHT22;5505;51.450;9.254;2023-05-09T03:16:19;8.50;99.90
10905;DHT22;5505;51.450;9.254;2023-05-09T03:19:06;8.50;99.90
10905;DHT22;5505;51.450;9.254;2023-05-09T03:21:53;8.50;99.90
10905;DHT22;5505;51.450;9.254;2023-05-09T03:24:40;10.10;99.90
10905;DHT22;5505;51.450;9.254;2023-05-09T03:27:28;8.40;99.90
10905;DHT22;5505;51.450;9.254;2023-05-09T03:30:14;9.50;99.90
10905;DHT22;5505;51.450;9.254;2023-05-09T03:33:01;8.50;99.90
10905;DHT22;5505;51.450;9.254;2023-05-09T03:35:49;8.50;99.90
10905;DHT22;5505;51.450;9.254;2023-05-09T03:38:36;8.90;99.90
10905;DHT22;5505;51.450;9.254;2023-05-09T03:41:22;8.60;99.90
10905;DHT22;5505;51.450;9.254;2023-05-09T03:44:10;8.60;99.90
10905;DHT22;5505;51.450;9.254;2023-05-09T03:46:57;8.70;99.90
10905;DHT22;5505;51.450;9.254;2023-05-09T03:49:44;8.70;99.90
10905;DHT22;5505;51.450;9.254;2023-05-09T03:52:31;8.70;99.90
10905;DHT22;5505;51.450;9.254;2023-05-09T03:55:18;10.30;99.90
10905;DHT22;5505;51.450;9.254;2023-05-09T03:58:05;8.80;99.90
10905;DHT22;5505;51.450;9.254;2023-05-09T04:00:53;8.80;99.90
10905;DHT22;5505;51.450;9.254;2023-05-09T04:03:40;8.80;99.90
10905;DHT22;5505;51.450;9.254;2023-05-09T04:06:27;8.90;99.90
10905;DHT22;5505;51.450;9.254;2023-05-09T04:09:14;8.90;99.90
10905;DHT22;5505;51.450;9.254;2023-05-09T04:12:01;8.90;99.90
10905;DHT22;5505;51.450;9.254;2023-05-09T04:14:48;9.00;99.90
10905;DHT22;5505;51.450;9.254;2023-05-09T04:17:37;9.00;99.90
10905;DHT22;5505;51.450;9.254;2023-05-09T04:20:24;9.00;99.90
10905;DHT22;5505;51.450;9.254;2023-05-09T04:23:11;9.10;99.90
10905;DHT22;5505;51.450;9.254;2023-05-09T04:25:57;9.10;99.90
10905;DHT22;5505;51.450;9.254;2023-05-09T04:28:44;9.20;99.90
10905;DHT22;5505;51.450;9.254;2023-05-09T04:31:31;9.30;99.90
10905;DHT22;5505;51.450;9.254;2023-05-09T04:34:19;9.40;99.90
10905;DHT22;5505;51.450;9.254;2023-05-09T04:37:06;10.70;99.90
10905;DHT22;5505;51.450;9.254;2023-05-09T04:39:53;9.50;99.90
10905;DHT22;5505;51.450;9.254;2023-05-09T04:42:40;9.60;99.90
10905;DHT22;5505;51.450;9.254;2023-05-09T04:45:26;9.70;99.90
10905;DHT22;5505;51.450;9.254;2023-05-09T04:48:13;10.90;99.90
10905;DHT22;5505;51.450;9.254;2023-05-09T04:51:01;9.80;99.90
10905;DHT22;5505;51.450;9.254;2023-05-09T04:53:48;9.90;99.90
10905;DHT22;5505;51.450;9.254;2023-05-09T04:56:35;10.00;99.90
10905;DHT22;5505;51.450;9.254;2023-05-09T04:59:22;10.20;99.90
10905;DHT22;5505;51.450;9.254;2023-05-09T05:02:09;10.30;99.90
10905;DHT22;5505;51.450;9.254;2023-05-09T05:04:56;10.50;99.90
10905;DHT22;5505;51.450;9.254;2023-05-09T05:07:44;10.70;99.90
10905;DHT22;5505;51.450;9.254;2023-05-09T05:10:31;10.80;99.90
10905;DHT22;5505;51.450;9.254;2023-05-09T05:13:17;10.90;99.90
10905;DHT22;5505;51.450;9.254;2023-05-09T05:16:05;11.00;99.90
10905;DHT22;5505;51.450;9.254;2023-05-09T05:18:52;11.20;99.90
10905;DHT22;5505;51.450;9.254;2023-05-09T05:21:39;11.20;99.90
10905;DHT22;5505;51.450;9.254;2023-05-09T05:24:27;11.40;99.90
10905;DHT22;5505;51.450;9.254;2023-05-09T05:27:14;11.60;99.90
10905;DHT22;5505;51.450;9.254;2023-05-09T05:30:01;12.90;99.90
10905;DHT22;5505;51.450;9.254;2023-05-09T05:32:47;12.10;99.90
10905;DHT22;5505;51.450;9.254;2023-05-09T05:35:34;11.10;99.90
10905;DHT22;5505;51.450;9.254;2023-05-09T05:38:21;12.30;99.90
10905;DHT22;5505;51.450;9.254;2023-05-09T05:41:09;12.50;99.90
10905;DHT22;5505;51.450;9.254;2023-05-09T05:43:56;12.50;99.90
10905;DHT22;5505;51.450;9.254;2023-05-09T05:46:43;12.50;99.90
10905;DHT22;5505;51.450;9.254;2023-05-09T05:49:29;12.60;99.90
10905;DHT22;5505;51.450;9.254;2023-05-09T05:52:16;12.70;99.90
10905;DHT22;5505;51.450;9.254;2023-05-09T05:55:03;12.70;99.90
10905;DHT22;5505;51.450;9.254;2023-05-09T05:57:52;12.80;99.90
10905;DHT22;5505;51.450;9.254;2023-05-09T06:00:39;13.00;99.90
10905;DHT22;5505;51.450;9.254;2023-05-09T06:03:26;13.20;99.90
10905;DHT22;5505;51.450;9.254;2023-05-09T06:06:12;13.30;99.90
10905;DHT22;5505;51.450;9.254;2023-05-09T06:08:59;13.70;99.90
10905;DHT22;5505;51.450;9.254;2023-05-09T06:11:46;13.50;99.90
10905;DHT22;5505;51.450;9.254;2023-05-09T06:14:34;13.70;99.90
10905;DHT22;5505;51.450;9.254;2023-05-09T06:17:21;13.80;99.90
10905;DHT22;5505;51.450;9.254;2023-05-09T06:20:08;14.00;99.90
10905;DHT22;5505;51.450;9.254;2023-05-09T06:22:54;14.20;99.90
10905;DHT22;5505;51.450;9.254;2023-05-09T06:25:41;14.00;99.90
10905;DHT22;5505;51.450;9.254;2023-05-09T06:28:28;14.40;99.90
10905;DHT22;5505;51.450;9.254;2023-05-09T06:31:16;14.50;99.90
10905;DHT22;5505;51.450;9.254;2023-05-09T06:34:03;14.60;99.90
10905;DHT22;5505;51.450;9.254;2023-05-09T06:36:50;14.60;99.90
10905;DHT22;5505;51.450;9.254;2023-05-09T06:39:37;14.80;99.90
10905;DHT22;5505;51.450;9.254;2023-05-09T06:42:24;14.90;99.90
10905;DHT22;5505;51.450;9.254;2023-05-09T06:45:11;15.10;99.90
10905;DHT22;5505;51.450;9.254;2023-05-09T06:47:59;15.40;99.90
10905;DHT22;5505;51.450;9.254;2023-05-09T06:50:46;15.60;99.90
10905;DHT22;5505;51.450;9.254;2023-05-09T06:53:33;15.90;99.90
10905;DHT22;5505;51.450;9.254;2023-05-09T06:56:19;16.20;99.90
10905;DHT22;5505;51.450;9.254;2023-05-09T06:59:07;16.50;99.90
10905;DHT22;5505;51.450;9.254;2023-05-09T07:01:57;16.80;99.90
10905;DHT22;5505;51.450;9.254;2023-05-09T07:04:46;17.00;99.90
10905;DHT22;5505;51.450;9.254;2023-05-09T07:07:32;17.20;99.90
10905;DHT22;5505;51.450;9.254;2023-05-09T07:10:19;17.40;99.90
10905;DHT22;5505;51.450;9.254;2023-05-09T07:13:06;17.70;99.90
10905;DHT22;5505;51.450;9.254;2023-05-09T07:15:53;17.90;99.90
10905;DHT22;5505;51.450;9.254;2023-05-09T07:18:40;17.90;99.90
10905;DHT22;5505;51.450;9.254;2023-05-09T07:21:28;18.00;99.90
10905;DHT22;5505;51.450;9.254;2023-05-09T07:24:16;18.00;99.90
10905;DHT22;5505;51.450;9.254;2023-05-09T07:27:03;18.20;99.90
10905;DHT22;5505;51.450;9.254;2023-05-09T07:29:50;18.30;99.90
10905;DHT22;5505;51.450;9.254;2023-05-09T07:32:37;18.10;99.90
10905;DHT22;5505;51.450;9.254;2023-05-09T07:35:24;18.20;99.90
10905;DHT22;5505;51.450;9.254;2023-05-09T07:38:12;18.20;99.90
10905;DHT22;5505;51.450;9.254;2023-05-09T07:40:59;18.10;99.90
10905;DHT22;5505;51.450;9.254;2023-05-09T07:43:46;18.10;99.90
10905;DHT22;5505;51.450;9.254;2023-05-09T07:46:32;17.90;99.90
10905;DHT22;5505;51.450;9.254;2023-05-09T07:49:19;17.70;99.90
10905;DHT22;5505;51.450;9.254;2023-05-09T07:52:06;17.50;99.90
10905;DHT22;5505;51.450;9.254;2023-05-09T07:54:54;17.50;99.90
10905;DHT22;5505;51.450;9.254;2023-05-09T07:57:41;17.60;99.90
10905;DHT22;5505;51.450;9.254;2023-05-09T08:00:28;17.60;99.90
10905;DHT22;5505;51.450;9.254;2023-05-09T08:03:14;17.60;99.90
10905;DHT22;5505;51.450;9.254;2023-05-09T08:06:01;17.60;99.90
10905;DHT22;5505;51.450;9.254;2023-05-09T08:08:48;17.50;99.90
10905;DHT22;5505;51.450;9.254;2023-05-09T08:11:36;17.30;99.90
10905;DHT22;5505;51.450;9.254;2023-05-09T08:14:23;17.30;99.90
10905;DHT22;5505;51.450;9.254;2023-05-09T08:17:10;17.20;99.90
10905;DHT22;5505;51.450;9.254;2023-05-09T08:19:57;17.50;99.90
10905;DHT22;5505;51.450;9.254;2023-05-09T08:22:44;18.00;99.90
10905;DHT22;5505;51.450;9.254;2023-05-09T08:25:30;18.20;99.90
10905;DHT22;5505;51.450;9.254;2023-05-09T08:28:19;18.50;99.90
10905;DHT22;5505;51.450;9.254;2023-05-09T08:31:06;18.40;99.90
10905;DHT22;5505;51.450;9.254;2023-05-09T08:33:53;19.60;99.90
10905;DHT22;5505;51.450;9.254;2023-05-09T08:36:39;19.00;99.90
10905;DHT22;5505;51.450;9.254;2023-05-09T08:39:30;18.80;99.90
10905;DHT22;5505;51.450;9.254;2023-05-09T08:42:19;18.60;99.90
10905;DHT22;5505;51.450;9.254;2023-05-09T08:45:10;18.70;99.90
10905;DHT22;5505;51.450;9.254;2023-05-09T08:47:57;18.30;99.90
10905;DHT22;5505;51.450;9.254;2023-05-09T08:50:45;18.40;99.90
10905;DHT22;5505;51.450;9.254;2023-05-09T08:53:32;18.40;99.90
10905;DHT22;5505;51.450;9.254;2023-05-09T08:56:19;18.60;99.90
10905;DHT22;5505;51.450;9.254;2023-05-09T08:59:06;18.80;99.90
10905;DHT22;5505;51.450;9.254;2023-05-09T09:01:55;20.70;99.90
10905;DHT22;5505;51.450;9.254;2023-05-09T09:04:42;19.20;99.90
10905;DHT22;5505;51.450;9.254;2023-05-09T09:07:33;19.40;99.90
10905;DHT22;5505;51.450;9.254;2023-05-09T09:10:20;19.40;99.90
10905;DHT22;5505;51.450;9.254;2023-05-09T09:13:10;19.10;99.90
10905;DHT22;5505;51.450;9.254;2023-05-09T09:15:58;19.10;99.90
10905;DHT22;5505;51.450;9.254;2023-05-09T09:18:47;20.50;99.90
10905;DHT22;5505;51.450;9.254;2023-05-09T09:21:38;19.10;99.90
10905;DHT22;5505;51.450;9.254;2023-05-09T09:24:26;19.20;99.90
10905;DHT22;5505;51.450;9.254;2023-05-09T09:27:13;19.20;99.90
10905;DHT22;5505;51.450;9.254;2023-05-09T09:30:05;19.20;99.90
10905;DHT22;5505;51.450;9.254;2023-05-09T09:32:52;19.20;99.90
10905;DHT22;5505;51.450;9.254;2023-05-09T09:35:41;19.10;99.90
10905;DHT22;5505;51.450;9.254;2023-05-09T09:38:28;19.20;99.90
10905;DHT22;5505;51.450;9.254;2023-05-09T09:41:29;19.20;99.90
10905;DHT22;5505;51.450;9.254;2023-05-09T09:44:18;19.10;99.90
10905;DHT22;5505;51.450;9.254;2023-05-09T09:47:09;19.20;99.90
10905;DHT22;5505;51.450;9.254;2023-05-09T09:49:56;19.20;99.90
10905;DHT22;5505;51.450;9.254;2023-05-09T09:52:48;19.30;99.90
10905;DHT22;5505;51.450;9.254;2023-05-09T09:55:35;19.20;99.90
10905;DHT22;5505;51.450;9.254;2023-05-09T09:58:22;19.80;99.90
10905;DHT22;5505;51.450;9.254;2023-05-09T10:01:11;19.70;99.90
10905;DHT22;5505;51.450;9.254;2023-05-09T10:04:02;19.80;99.90
10905;DHT22;5505;51.450;9.254;2023-05-09T10:06:53;19.70;99.90
10905;DHT22;5505;51.450;9.254;2023-05-09T10:09:41;19.70;99.90
10905;DHT22;5505;51.450;9.254;2023-05-09T10:12:28;19.90;99.90
10905;DHT22;5505;51.450;9.254;2023-05-09T10:15:16;19.70;99.90
10905;DHT22;5505;51.450;9.254;2023-05-09T10:18:06;20.10;99.90
10905;DHT22;5505;51.450;9.254;2023-05-09T10:20:55;20.00;99.90
10905;DHT22;5505;51.450;9.254;2023-05-09T10:23:47;20.10;99.90
10905;DHT22;5505;51.450;9.254;2023-05-09T10:26:40;20.30;99.90
10905;DHT22;5505;51.450;9.254;2023-05-09T10:29:34;20.40;99.90
10905;DHT22;5505;51.450;9.254;2023-05-09T10:32:23;20.30;99.90
10905;DHT22;5505;51.450;9.254;2023-05-09T10:35:13;20.20;99.90
10905;DHT22;5505;51.450;9.254;2023-05-09T10:38:02;20.10;99.90
10905;DHT22;5505;51.450;9.254;2023-05-09T10:40:49;20.10;99.90
10905;DHT22;5505;51.450;9.254;2023-05-09T10:43:38;20.00;99.90
10905;DHT22;5505;51.450;9.254;2023-05-09T10:46:25;20.00;99.90
10905;DHT22;5505;51.450;9.254;2023-05-09T10:49:13;20.10;99.90
10905;DHT22;5505;51.450;9.254;2023-05-09T10:52:00;20.10;99.90
10905;DHT22;5505;51.450;9.254;2023-05-09T10:54:57;20.00;99.90
10905;DHT22;5505;51.450;9.254;2023-05-09T10:57:52;20.30;99.90
10905;DHT22;5505;51.450;9.254;2023-05-09T11:00:41;20.60;99.90
10905;DHT22;5505;51.450;9.254;2023-05-09T11:03:52;20.40;99.90
10905;DHT22;5505;51.450;9.254;2023-05-09T11:06:44;20.00;99.90
10905;DHT22;5505;51.450;9.254;2023-05-09T11:09:33;20.00;99.90
10905;DHT22;5505;51.450;9.254;2023-05-09T11:12:22;18.80;99.90
10905;DHT22;5505;51.450;9.254;2023-05-09T11:15:10;20.30;99.90
10905;DHT22;5505;51.450;9.254;2023-05-09T11:18:08;20.30;99.90
10905;DHT22;5505;51.450;9.254;2023-05-09T11:20:57;19.90;99.90
10905;DHT22;5505;51.450;9.254;2023-05-09T11:23:45;19.90;99.90
10905;DHT22;5505;51.450;9.254;2023-05-09T11:26:31;19.70;99.90
10905;DHT22;5505;51.450;9.254;2023-05-09T11:29:18;19.60;99.90
10905;DHT22;5505;51.450;9.254;2023-05-09T11:32:05;19.50;99.90
10905;DHT22;5505;51.450;9.254;2023-05-09T11:35:04;19.50;99.90
10905;DHT22;5505;51.450;9.254;2023-05-09T11:37:59;19.60;99.90
10905;DHT22;5505;51.450;9.254;2023-05-09T11:40:46;19.80;99.90
10905;DHT22;5505;51.450;9.254;2023-05-09T11:43:33;19.80;99.90
10905;DHT22;5505;51.450;9.254;2023-05-09T11:46:20;19.80;99.90
10905;DHT22;5505;51.450;9.254;2023-05-09T11:49:07;20.10;99.90
10905;DHT22;5505;51.450;9.254;2023-05-09T11:51:58;20.10;99.90
10905;DHT22;5505;51.450;9.254;2023-05-09T11:54:46;20.10;99.90
10905;DHT22;5505;51.450;9.254;2023-05-09T11:57:34;20.40;99.90
10905;DHT22;5505;51.450;9.254;2023-05-09T12:00:23;20.70;99.90
10905;DHT22;5505;51.450;9.254;2023-05-09T12:03:10;20.80;99.90
10905;DHT22;5505;51.450;9.254;2023-05-09T12:05:57;20.80;99.90
10905;DHT22;5505;51.450;9.254;2023-05-09T12:08:45;20.70;99.90
10905;DHT22;5505;51.450;9.254;2023-05-09T12:11:33;20.50;99.90
10905;DHT22;5505;51.450;9.254;2023-05-09T12:14:29;21.10;99.90
10905;DHT22;5505;51.450;9.254;2023-05-09T12:17:16;20.50;99.90
10905;DHT22;5505;51.450;9.254;2023-05-09T12:20:03;20.50;99.90
10905;DHT22;5505;51.450;9.254;2023-05-09T12:22:52;20.60;99.90
10905;DHT22;5505;51.450;9.254;2023-05-09T12:25:39;20.80;99.90
10905;DHT22;5505;51.450;9.254;2023-05-09T12:28:27;20.90;99.90
10905;DHT22;5505;51.450;9.254;2023-05-09T12:31:15;21.00;99.90
10905;DHT22;5505;51.450;9.254;2023-05-09T12:34:03;20.90;99.90
10905;DHT22;5505;51.450;9.254;2023-05-09T12:36:50;20.80;99.90
10905;DHT22;5505;51.450;9.254;2023-05-09T12:39:37;21.00;99.90
10905;DHT22;5505;51.450;9.254;2023-05-09T12:42:26;20.80;99.90
10905;DHT22;5505;51.450;9.254;2023-05-09T12:45:14;20.70;99.90
10905;DHT22;5505;51.450;9.254;2023-05-09T12:48:01;20.40;99.90
10905;DHT22;5505;51.450;9.254;2023-05-09T12:50:50;20.30;99.90
10905;DHT22;5505;51.450;9.254;2023-05-09T12:53:39;20.10;99.90
10905;DHT22;5505;51.450;9.254;2023-05-09T12:56:25;20.40;99.90
10905;DHT22;5505;51.450;9.254;2023-05-09T12:59:12;20.50;99.90
10905;DHT22;5505;51.450;9.254;2023-05-09T13:02:01;20.60;99.90
10905;DHT22;5505;51.450;9.254;2023-05-09T13:04:48;20.60;99.90
10905;DHT22;5505;51.450;9.254;2023-05-09T13:07:38;20.70;99.90
10905;DHT22;5505;51.450;9.254;2023-05-09T13:10:26;20.70;99.90
10905;DHT22;5505;51.450;9.254;2023-05-09T13:13:14;20.70;99.90
10905;DHT22;5505;51.450;9.254;2023-05-09T13:16:02;20.90;99.90
10905;DHT22;5505;51.450;9.254;2023-05-09T13:18:51;20.90;99.90
10905;DHT22;5505;51.450;9.254;2023-05-09T13:21:37;21.10;99.90
10905;DHT22;5505;51.450;9.254;2023-05-09T13:24:24;21.00;99.90
10905;DHT22;5505;51.450;9.254;2023-05-09T13:27:11;20.80;99.90
10905;DHT22;5505;51.450;9.254;2023-05-09T13:29:59;20.70;99.90
10905;DHT22;5505;51.450;9.254;2023-05-09T13:32:55;20.70;99.90
10905;DHT22;5505;51.450;9.254;2023-05-09T13:35:43;20.70;99.90
10905;DHT22;5505;51.450;9.254;2023-05-09T13:38:29;20.70;99.90
10905;DHT22;5505;51.450;9.254;2023-05-09T13:41:16;20.70;99.90
10905;DHT22;5505;51.450;9.254;2023-05-09T13:44:06;20.80;99.90
10905;DHT22;5505;51.450;9.254;2023-05-09T13:46:53;20.60;99.90
10905;DHT22;5505;51.450;9.254;2023-05-09T13:49:42;20.60;99.90
10905;DHT22;5505;51.450;9.254;2023-05-09T13:52:30;20.70;99.90
10905;DHT22;5505;51.450;9.254;2023-05-09T13:55:17;20.60;99.90
10905;DHT22;5505;51.450;9.254;2023-05-09T13:58:04;20.70;99.90
10905;DHT22;5505;51.450;9.254;2023-05-09T14:00:51;20.80;99.90
10905;DHT22;5505;51.450;9.254;2023-05-09T14:03:37;20.90;99.90
10905;DHT22;5505;51.450;9.254;2023-05-09T14:06:24;20.90;99.90
10905;DHT22;5505;51.450;9.254;2023-05-09T14:09:12;20.70;99.90
10905;DHT22;5505;51.450;9.254;2023-05-09T14:11:59;20.80;99.90
10905;DHT22;5505;51.450;9.254;2023-05-09T14:14:46;20.70;99.90
10905;DHT22;5505;51.450;9.254;2023-05-09T14:17:33;20.50;99.90
10905;DHT22;5505;51.450;9.254;2023-05-09T14:20:20;20.60;99.90
10905;DHT22;5505;51.450;9.254;2023-05-09T14:23:06;20.80;99.90
10905;DHT22;5505;51.450;9.254;2023-05-09T14:25:54;21.00;99.90
10905;DHT22;5505;51.450;9.254;2023-05-09T14:28:41;21.10;99.90
10905;DHT22;5505;51.450;9.254;2023-05-09T14:31:28;21.20;99.90
10905;DHT22;5505;51.450;9.254;2023-05-09T14:34:15;21.30;99.90
10905;DHT22;5505;51.450;9.254;2023-05-09T14:37:02;21.50;99.90
10905;DHT22;5505;51.450;9.254;2023-05-09T14:39:49;21.40;99.90
10905;DHT22;5505;51.450;9.254;2023-05-09T14:42:37;21.30;99.90
10905;DHT22;5505;51.450;9.254;2023-05-09T14:45:23;21.00;99.90
10905;DHT22;5505;51.450;9.254;2023-05-09T14:48:10;20.90;99.90
10905;DHT22;5505;51.450;9.254;2023-05-09T14:50:57;21.10;99.90
10905;DHT22;5505;51.450;9.254;2023-05-09T14:53:44;20.90;99.90
10905;DHT22;5505;51.450;9.254;2023-05-09T14:56:31;20.90;99.90
10905;DHT22;5505;51.450;9.254;2023-05-09T14:59:20;21.10;99.90
10905;DHT22;5505;51.450;9.254;2023-05-09T15:02:06;21.30;99.90
10905;DHT22;5505;51.450;9.254;2023-05-09T15:04:53;21.40;99.90
10905;DHT22;5505;51.450;9.254;2023-05-09T15:07:40;21.40;99.90
10905;DHT22;5505;51.450;9.254;2023-05-09T15:10:27;21.30;99.90
10905;DHT22;5505;51.450;9.254;2023-05-09T15:13:13;21.30;99.90
10905;DHT22;5505;51.450;9.254;2023-05-09T15:16:02;21.30;99.90
10905;DHT22;5505;51.450;9.254;2023-05-09T15:18:49;21.20;99.90
10905;DHT22;5505;51.450;9.254;2023-05-09T15:21:35;21.40;99.90
10905;DHT22;5505;51.450;9.254;2023-05-09T15:24:22;21.30;99.90
10905;DHT22;5505;51.450;9.254;2023-05-09T15:27:09;21.20;99.90
10905;DHT22;5505;51.450;9.254;2023-05-09T15:29:56;21.20;99.90
10905;DHT22;5505;51.450;9.254;2023-05-09T15:32:44;21.20;99.90
10905;DHT22;5505;51.450;9.254;2023-05-09T15:35:31;21.00;99.90
10905;DHT22;5505;51.450;9.254;2023-05-09T15:38:17;20.90;99.90
10905;DHT22;5505;51.450;9.254;2023-05-09T15:41:04;20.70;99.90
10905;DHT22;5505;51.450;9.254;2023-05-09T15:43:51;20.70;99.90
10905;DHT22;5505;51.450;9.254;2023-05-09T15:46:38;20.70;99.90
10905;DHT22;5505;51.450;9.254;2023-05-09T15:49:26;20.70;99.90
10905;DHT22;5505;51.450;9.254;2023-05-09T15:52:13;20.80;99.90
10905;DHT22;5505;51.450;9.254;2023-05-09T15:55:00;20.90;99.90
10905;DHT22;5505;51.450;9.254;2023-05-09T15:57:47;20.90;99.90
10905;DHT22;5505;51.450;9.254;2023-05-09T16:00:35;20.90;99.90
10905;DHT22;5505;51.450;9.254;2023-05-09T16:03:23;20.80;99.90
10905;DHT22;5505;51.450;9.254;2023-05-09T16:06:11;20.70;99.90
10905;DHT22;5505;51.450;9.254;2023-05-09T16:08:58;20.80;99.90
10905;DHT22;5505;51.450;9.254;2023-05-09T16:11:46;20.80;99.90
10905;DHT22;5505;51.450;9.254;2023-05-09T16:14:33;20.70;99.90
10905;DHT22;5505;51.450;9.254;2023-05-09T16:17:20;20.70;99.90
10905;DHT22;5505;51.450;9.254;2023-05-09T16:20:08;20.60;99.90
10905;DHT22;5505;51.450;9.254;2023-05-09T16:22:59;20.50;99.90
10905;DHT22;5505;51.450;9.254;2023-05-09T16:25:45;20.50;99.90
10905;DHT22;5505;51.450;9.254;2023-05-09T16:28:34;20.40;99.90
10905;DHT22;5505;51.450;9.254;2023-05-09T16:31:21;20.30;99.90
10905;DHT22;5505;51.450;9.254;2023-05-09T16:34:10;20.30;99.90
10905;DHT22;5505;51.450;9.254;2023-05-09T16:36:57;20.30;99.90
10905;DHT22;5505;51.450;9.254;2023-05-09T16:39:45;20.30;99.90
10905;DHT22;5505;51.450;9.254;2023-05-09T16:42:32;20.40;99.90
10905;DHT22;5505;51.450;9.254;2023-05-09T16:45:18;20.40;99.90
10905;DHT22;5505;51.450;9.254;2023-05-09T16:48:05;20.40;99.90
10905;DHT22;5505;51.450;9.254;2023-05-09T16:50:52;20.30;99.90
10905;DHT22;5505;51.450;9.254;2023-05-09T16:53:40;20.30;99.90
10905;DHT22;5505;51.450;9.254;2023-05-09T16:56:28;20.20;99.90
10905;DHT22;5505;51.450;9.254;2023-05-09T16:59:15;20.20;99.90
10905;DHT22;5505;51.450;9.254;2023-05-09T17:02:03;20.20;99.90
10905;DHT22;5505;51.450;9.254;2023-05-09T17:04:50;20.20;99.90
10905;DHT22;5505;51.450;9.254;2023-05-09T17:07:37;20.10;99.90
10905;DHT22;5505;51.450;9.254;2023-05-09T17:10:24;20.10;99.90
10905;DHT22;5505;51.450;9.254;2023-05-09T17:13:12;20.10;99.90
10905;DHT22;5505;51.450;9.254;2023-05-09T17:15:59;20.10;99.90
10905;DHT22;5505;51.450;9.254;2023-05-09T17:18:45;20.00;99.90
10905;DHT22;5505;51.450;9.254;2023-05-09T17:21:32;20.00;99.90
10905;DHT22;5505;51.450;9.254;2023-05-09T17:24:19;19.90;99.90
10905;DHT22;5505;51.450;9.254;2023-05-09T17:27:06;19.90;99.90
10905;DHT22;5505;51.450;9.254;2023-05-09T17:29:54;19.80;99.90
10905;DHT22;5505;51.450;9.254;2023-05-09T17:32:41;20.10;99.90
10905;DHT22;5505;51.450;9.254;2023-05-09T17:35:28;19.80;99.90
10905;DHT22;5505;51.450;9.254;2023-05-09T17:38:15;19.70;99.90
10905;DHT22;5505;51.450;9.254;2023-05-09T17:41:02;19.60;99.90
10905;DHT22;5505;51.450;9.254;2023-05-09T17:43:48;19.60;99.90
10905;DHT22;5505;51.450;9.254;2023-05-09T17:46:38;19.50;99.90
10905;DHT22;5505;51.450;9.254;2023-05-09T17:49:25;19.50;99.90
10905;DHT22;5505;51.450;9.254;2023-05-09T17:52:13;18.50;99.90
10905;DHT22;5505;51.450;9.254;2023-05-09T17:54:59;19.40;99.90
10905;DHT22;5505;51.450;9.254;2023-05-09T17:57:46;19.30;99.90
10905;DHT22;5505;51.450;9.254;2023-05-09T18:00:33;19.60;99.90
10905;DHT22;5505;51.450;9.254;2023-05-09T18:03:22;19.80;99.90